createdAt,value
2017-01-18T00:00:06.106Z,91.35
2017-01-18T00:01:06.088Z,92.19
2017-01-18T00:02:06.068Z,92
2017-01-18T00:03:06.055Z,91.72
2017-01-18T00:04:06.034Z,91.86
2017-01-18T00:05:06.399Z,91.39
2017-01-18T00:06:05.996Z,92.14
2017-01-18T00:07:05.979Z,91.86
2017-01-18T00:08:06.352Z,91.96
2017-01-18T00:09:05.944Z,92.33
2017-01-18T00:10:05.926Z,91.96
2017-01-18T00:11:05.907Z,92.33
2017-01-18T00:12:05.892Z,92.14
2017-01-18T00:13:05.871Z,92.43
2017-01-18T00:14:05.855Z,92.43
2017-01-18T00:15:05.835Z,92.52
2017-01-18T00:16:05.816Z,92.33
2017-01-18T00:17:05.799Z,91.77
2017-01-18T00:18:05.781Z,92.33
2017-01-18T00:19:05.767Z,92.05
2017-01-18T00:20:05.748Z,91.49
2017-01-18T00:21:05.733Z,91.86
2017-01-18T00:22:05.712Z,92.05
2017-01-18T00:23:05.694Z,91.86
2017-01-18T00:24:05.678Z,92.14
2017-01-18T00:25:05.689Z,92
2017-01-18T00:26:05.641Z,91.44
2017-01-18T00:27:05.624Z,91.15
2017-01-18T00:28:05.606Z,91.53
2017-01-18T00:29:05.589Z,91.25
2017-01-18T00:30:05.572Z,91.25
2017-01-18T00:31:05.557Z,91.44
2017-01-18T00:32:05.537Z,90.87
2017-01-18T00:33:05.519Z,91.34
2017-01-18T00:34:05.503Z,90.87
2017-01-18T00:35:05.484Z,91.34
2017-01-18T00:36:05.469Z,90.96
2017-01-18T00:37:05.450Z,90.87
2017-01-18T00:38:05.435Z,91.06
2017-01-18T00:39:05.417Z,91.53
2017-01-18T00:40:05.420Z,90.87
2017-01-18T00:41:05.384Z,90.68
2017-01-18T00:42:05.366Z,90.11
2017-01-18T00:43:05.349Z,90.59
2017-01-18T00:44:05.330Z,90.59
2017-01-18T00:45:05.316Z,90.68
2017-01-18T00:46:05.298Z,90.68
2017-01-18T00:47:05.282Z,90.68
2017-01-18T00:48:05.264Z,89.92
2017-01-18T00:49:05.248Z,90.44
2017-01-18T00:50:05.232Z,90.54
2017-01-18T00:51:05.216Z,90.44
2017-01-18T00:52:05.198Z,90.54
2017-01-18T00:53:05.180Z,90.16
2017-01-18T00:54:05.163Z,90.54
2017-01-18T00:55:05.145Z,90.06
2017-01-18T00:56:05.130Z,89.97
2017-01-18T00:57:05.114Z,89.59
2017-01-18T00:58:05.098Z,89.59
2017-01-18T00:59:05.080Z,89.4
2017-01-18T01:00:05.066Z,88.65
2017-01-18T01:01:05.047Z,89.03
2017-01-18T01:02:05.031Z,88.84
2017-01-18T01:03:05.015Z,88.84
2017-01-18T01:04:04.997Z,89.12
2017-01-18T01:05:04.979Z,88.84
2017-01-18T01:06:04.964Z,88.93
2017-01-18T01:07:04.949Z,88.84
2017-01-18T01:08:04.931Z,87.89
2017-01-18T01:09:04.914Z,88.17
2017-01-18T01:10:04.900Z,89.03
2017-01-18T01:11:04.882Z,88.46
2017-01-18T01:12:04.864Z,88.55
2017-01-18T01:13:04.849Z,88.55
2017-01-18T01:14:04.834Z,88.08
2017-01-18T01:15:04.817Z,88.65
2017-01-18T01:16:04.797Z,88.46
2017-01-18T01:17:04.782Z,88.46
2017-01-18T01:18:04.764Z,88.55
2017-01-18T01:19:04.751Z,88.55
2017-01-18T01:20:04.759Z,87.98
2017-01-18T01:21:04.716Z,88.36
2017-01-18T01:22:04.698Z,87.98
2017-01-18T01:23:04.682Z,87.79
2017-01-18T01:24:04.667Z,87.79
2017-01-18T01:25:04.650Z,88.27
2017-01-18T01:26:04.632Z,88.46
2017-01-18T01:27:04.617Z,88.46
2017-01-18T01:28:04.601Z,88.27
2017-01-18T01:29:04.583Z,87.98
2017-01-18T01:30:04.567Z,88.36
2017-01-18T01:31:04.552Z,88.36
2017-01-18T01:32:04.537Z,88.36
2017-01-18T01:33:04.553Z,87.61
2017-01-18T01:34:04.503Z,87.79
2017-01-18T01:35:04.486Z,87.79
2017-01-18T01:36:04.470Z,87.79
2017-01-18T01:37:04.453Z,87.23
2017-01-18T01:38:04.436Z,88.08
2017-01-18T01:39:04.420Z,87.79
2017-01-18T01:40:04.404Z,87.23
2017-01-18T01:41:04.391Z,87.89
2017-01-18T01:42:04.371Z,87.42
2017-01-18T01:43:04.355Z,86.66
2017-01-18T01:44:04.337Z,86.94
2017-01-18T01:45:04.323Z,87.23
2017-01-18T01:46:04.307Z,86.57
2017-01-18T01:47:04.291Z,86.76
2017-01-18T01:48:04.274Z,86.38
2017-01-18T01:49:04.258Z,86.38
2017-01-18T01:50:04.245Z,86.94
2017-01-18T01:51:04.227Z,86.94
2017-01-18T01:52:04.209Z,86.66
2017-01-18T01:53:04.192Z,86.85
2017-01-18T01:54:04.176Z,86.47
2017-01-18T01:55:04.161Z,86.66
2017-01-18T01:56:04.143Z,86.38
2017-01-18T01:57:04.127Z,86.47
2017-01-18T01:58:04.113Z,85.91
2017-01-18T01:59:04.094Z,86.19
2017-01-18T02:00:04.078Z,86.29
2017-01-18T02:01:04.066Z,86.29
2017-01-18T02:02:04.044Z,86.19
2017-01-18T02:03:04.029Z,86.19
2017-01-18T02:04:04.012Z,86.19
2017-01-18T02:05:03.999Z,85.91
2017-01-18T02:06:03.980Z,86
2017-01-18T02:07:04.002Z,85.81
2017-01-18T02:08:03.954Z,86.1
2017-01-18T02:09:03.932Z,86.1
2017-01-18T02:10:03.915Z,86.19
2017-01-18T02:11:03.899Z,85.81
2017-01-18T02:12:03.883Z,85.81
2017-01-18T02:13:03.866Z,85.72
2017-01-18T02:14:03.852Z,85.72
2017-01-18T02:15:03.834Z,86
2017-01-18T02:16:03.817Z,85.72
2017-01-18T02:17:03.802Z,85.62
2017-01-18T02:18:03.784Z,86
2017-01-18T02:19:03.768Z,85.34
2017-01-18T02:20:03.752Z,85.62
2017-01-18T02:21:03.738Z,85.43
2017-01-18T02:22:03.721Z,85.72
2017-01-18T02:23:03.705Z,85.34
2017-01-18T02:24:03.689Z,85.72
2017-01-18T02:25:03.673Z,85.43
2017-01-18T02:26:03.657Z,85.43
2017-01-18T02:27:03.641Z,85.05
2017-01-18T02:28:03.623Z,85.15
2017-01-18T02:29:03.995Z,85.15
2017-01-18T02:30:03.593Z,85.15
2017-01-18T02:31:03.579Z,85.34
2017-01-18T02:32:03.561Z,85.05
2017-01-18T02:33:03.543Z,85.1
2017-01-18T02:34:03.527Z,85.34
2017-01-18T02:35:03.512Z,85
2017-01-18T02:36:03.496Z,85.15
2017-01-18T02:37:03.480Z,85.19
2017-01-18T02:38:03.464Z,85.24
2017-01-18T02:39:03.448Z,85.28
2017-01-18T02:40:03.430Z,85
2017-01-18T02:41:03.417Z,85.1
2017-01-18T02:42:03.783Z,85.19
2017-01-18T02:43:03.382Z,84.72
2017-01-18T02:44:03.367Z,84.81
2017-01-18T02:45:03.351Z,84.77
2017-01-18T02:46:03.336Z,84.72
2017-01-18T02:47:03.319Z,84.25
2017-01-18T02:48:03.304Z,84.58
2017-01-18T02:49:03.287Z,84.96
2017-01-18T02:50:03.271Z,84.81
2017-01-18T02:51:03.253Z,84.68
2017-01-18T02:52:03.625Z,84.34
2017-01-18T02:53:03.254Z,84.39
2017-01-18T02:54:03.205Z,84.68
2017-01-18T02:55:03.190Z,84.58
2017-01-18T02:56:03.177Z,84.49
2017-01-18T02:57:03.157Z,84.3
2017-01-18T02:58:03.145Z,84.39
2017-01-18T02:59:03.126Z,84.01
2017-01-18T03:00:03.110Z,84.11
2017-01-18T03:01:03.093Z,84.3
2017-01-18T03:02:03.077Z,84.2
2017-01-18T03:03:03.062Z,84.68
2017-01-18T03:04:03.047Z,84.3
2017-01-18T03:05:03.028Z,84.86
2017-01-18T03:06:03.013Z,84.77
2017-01-18T03:07:03.001Z,84.86
2017-01-18T03:08:02.982Z,85.34
2017-01-18T03:09:02.964Z,84.96
2017-01-18T03:10:02.951Z,85.34
2017-01-18T03:11:02.933Z,85.1
2017-01-18T03:12:02.917Z,84.96
2017-01-18T03:13:02.899Z,84.96
2017-01-18T03:14:02.884Z,85.38
2017-01-18T03:15:02.867Z,84.86
2017-01-18T03:16:02.858Z,84.68
2017-01-18T03:17:02.836Z,84.72
2017-01-18T03:18:02.819Z,84.91
2017-01-18T03:19:02.807Z,84.72
2017-01-18T03:20:02.787Z,84.53
2017-01-18T03:21:02.774Z,84.34
2017-01-18T03:22:03.142Z,84.34
2017-01-18T03:23:02.738Z,84.53
2017-01-18T03:24:02.722Z,84.63
2017-01-18T03:25:02.706Z,84.34
2017-01-18T03:26:02.689Z,84.44
2017-01-18T03:27:02.677Z,84.44
2017-01-18T03:28:02.687Z,84.44
2017-01-18T03:29:02.644Z,84.44
2017-01-18T03:30:02.627Z,84.34
2017-01-18T03:31:02.612Z,84.25
2017-01-18T03:32:02.595Z,84.25
2017-01-18T03:33:02.578Z,84.11
2017-01-18T03:34:02.563Z,85.1
2017-01-18T03:35:02.547Z,84.72
2017-01-18T03:36:02.533Z,84.53
2017-01-18T03:37:02.513Z,84.96
2017-01-18T03:38:02.500Z,84.91
2017-01-18T03:39:02.482Z,84.72
2017-01-18T03:40:02.466Z,84.91
2017-01-18T03:41:02.449Z,84.91
2017-01-18T03:42:02.433Z,84.91
2017-01-18T03:43:02.417Z,84.53
2017-01-18T03:44:02.407Z,84.81
2017-01-18T03:45:02.384Z,84.72
2017-01-18T03:46:02.369Z,84.81
2017-01-18T03:47:02.355Z,84.63
2017-01-18T03:48:02.337Z,84.91
2017-01-18T03:49:02.321Z,84.91
2017-01-18T03:50:02.306Z,84.72
2017-01-18T03:51:02.293Z,84.72
2017-01-18T03:52:02.300Z,84.72
2017-01-18T03:53:02.257Z,85.1
2017-01-18T03:54:02.243Z,84.91
2017-01-18T03:55:02.227Z,84.72
2017-01-18T03:56:02.211Z,84.63
2017-01-18T03:57:02.194Z,84.72
2017-01-18T03:58:02.181Z,85.19
2017-01-18T03:59:02.162Z,84.81
2017-01-18T04:00:02.146Z,84.81
2017-01-18T04:01:02.131Z,84.91
2017-01-18T04:02:02.116Z,84.72
2017-01-18T04:03:02.098Z,84.81
2017-01-18T04:04:02.082Z,84.72
2017-01-18T04:05:02.070Z,85
2017-01-18T04:06:02.051Z,84.81
2017-01-18T04:07:02.035Z,85.1
2017-01-18T04:08:02.018Z,84.72
2017-01-18T04:09:02.003Z,85.19
2017-01-18T04:10:01.987Z,84.81
2017-01-18T04:11:01.970Z,84.72
2017-01-18T04:12:01.955Z,84.81
2017-01-18T04:13:01.942Z,84.53
2017-01-18T04:14:01.925Z,85
2017-01-18T04:15:01.913Z,84.63
2017-01-18T04:16:02.281Z,84.72
2017-01-18T04:17:01.876Z,84.72
2017-01-18T04:18:01.860Z,85.28
2017-01-18T04:19:01.844Z,84.91
2017-01-18T04:20:01.830Z,84.72
2017-01-18T04:21:01.812Z,84.72
2017-01-18T04:22:01.797Z,84.91
2017-01-18T04:23:01.780Z,84.72
2017-01-18T04:24:01.763Z,84.72
2017-01-18T04:25:01.747Z,85.1
2017-01-18T04:26:01.733Z,84.91
2017-01-18T04:27:01.715Z,84.91
2017-01-18T04:28:01.697Z,85
2017-01-18T04:29:01.684Z,84.91
2017-01-18T04:30:01.696Z,84.44
2017-01-18T04:31:01.651Z,84.91
2017-01-18T04:32:01.634Z,84.53
2017-01-18T04:33:01.622Z,84.34
2017-01-18T04:34:01.603Z,84.63
2017-01-18T04:35:01.588Z,84.25
2017-01-18T04:36:01.572Z,84.25
2017-01-18T04:37:01.556Z,84.25
2017-01-18T04:38:01.543Z,84.44
2017-01-18T04:39:01.525Z,84.44
2017-01-18T04:40:01.509Z,84.44
2017-01-18T04:41:01.497Z,84.44
2017-01-18T04:42:01.503Z,84.44
2017-01-18T04:43:01.462Z,84.34
2017-01-18T04:44:01.448Z,84.44
2017-01-18T04:45:01.432Z,84.44
2017-01-18T04:46:01.415Z,84.53
2017-01-18T04:47:01.398Z,84.53
2017-01-18T04:48:01.382Z,84.34
2017-01-18T04:49:01.368Z,84.63
2017-01-18T04:50:01.351Z,84.34
2017-01-18T04:51:01.336Z,84.44
2017-01-18T04:52:01.321Z,84.53
2017-01-18T04:53:01.306Z,84.44
2017-01-18T04:54:01.289Z,84.53
2017-01-18T04:55:01.273Z,84.53
2017-01-18T04:56:01.258Z,84.44
2017-01-18T04:57:01.248Z,84.44
2017-01-18T04:58:01.225Z,84.34
2017-01-18T04:59:01.212Z,84.44
2017-01-18T05:00:01.195Z,84.34
2017-01-18T05:01:01.176Z,84.44
2017-01-18T05:02:01.169Z,84.16
2017-01-18T05:03:01.147Z,83.68
2017-01-18T05:04:01.132Z,83.78
2017-01-18T05:05:01.118Z,84.16
2017-01-18T05:06:01.100Z,84.16
2017-01-18T05:07:01.082Z,84.16
2017-01-18T05:08:01.070Z,83.78
2017-01-18T05:09:01.052Z,83.87
2017-01-18T05:10:01.036Z,83.78
2017-01-18T05:11:01.021Z,84.06
2017-01-18T05:12:01.004Z,84.16
2017-01-18T05:13:00.989Z,84.44
2017-01-18T05:14:00.974Z,84.44
2017-01-18T05:15:00.958Z,84.53
2017-01-18T05:16:00.941Z,84.25
2017-01-18T05:17:00.925Z,84.25
2017-01-18T05:18:00.911Z,84.63
2017-01-18T05:19:00.894Z,84.44
2017-01-18T05:20:00.908Z,84.25
2017-01-18T05:21:00.863Z,84.44
2017-01-18T05:22:00.852Z,84.34
2017-01-18T05:23:00.832Z,84.53
2017-01-18T05:24:00.817Z,84.44
2017-01-18T05:25:00.799Z,84.44
2017-01-18T05:26:00.788Z,84.34
2017-01-18T05:27:00.768Z,84.34
2017-01-18T05:28:00.751Z,84.81
2017-01-18T05:29:00.737Z,84.25
2017-01-18T05:30:00.724Z,84.16
2017-01-18T05:31:00.709Z,84.34
2017-01-18T05:32:00.694Z,84.63
2017-01-18T05:33:00.675Z,84.34
2017-01-18T05:34:00.660Z,84.16
2017-01-18T05:35:00.644Z,84.25
2017-01-18T05:36:00.629Z,84.44
2017-01-18T05:37:00.615Z,84.16
2017-01-18T05:38:00.598Z,83.78
2017-01-18T05:39:00.581Z,84.16
2017-01-18T05:40:00.567Z,84.25
2017-01-18T05:41:00.550Z,84.63
2017-01-18T05:42:00.534Z,84.34
2017-01-18T05:43:00.518Z,84.44
2017-01-18T05:44:00.503Z,84.34
2017-01-18T05:45:00.835Z,84.63
2017-01-18T05:46:00.471Z,84.25
2017-01-18T05:47:00.454Z,84.25
2017-01-18T05:48:00.442Z,84.25
2017-01-18T05:49:00.422Z,84.63
2017-01-18T05:50:00.415Z,83.68
2017-01-18T05:51:00.395Z,84.16
2017-01-18T05:52:00.376Z,84.34
2017-01-18T05:53:00.360Z,84.16
2017-01-18T05:54:00.348Z,83.78
2017-01-18T05:55:00.328Z,83.97
2017-01-18T05:56:00.314Z,84.16
2017-01-18T05:57:00.300Z,84.16
2017-01-18T05:58:00.284Z,83.87
2017-01-18T05:59:00.266Z,84.16
2017-01-18T06:00:00.251Z,83.97
2017-01-18T06:01:00.236Z,84.34
2017-01-18T06:02:00.223Z,84.44
2017-01-18T06:03:00.202Z,83.87
2017-01-18T06:04:00.190Z,84.06
2017-01-18T06:05:00.175Z,84.16
2017-01-18T06:06:00.158Z,83.78
2017-01-18T06:07:00.141Z,83.3
2017-01-18T06:08:00.124Z,83.68
2017-01-18T06:09:00.110Z,83.78
2017-01-18T06:10:00.111Z,83.68
2017-01-18T06:11:00.078Z,83.4
2017-01-18T06:12:00.061Z,83.68
2017-01-18T06:13:00.047Z,83.97
2017-01-18T06:14:00.032Z,83.49
2017-01-18T06:15:00.015Z,83.97
2017-01-18T06:15:59.999Z,83.87
2017-01-18T06:16:59.984Z,83.97
2017-01-18T06:17:59.967Z,84.16
2017-01-18T06:18:59.952Z,83.87
2017-01-18T06:19:59.936Z,83.87
2017-01-18T06:20:59.922Z,84.06
2017-01-18T06:21:59.905Z,83.78
2017-01-18T06:22:59.891Z,83.59
2017-01-18T06:23:59.875Z,83.49
2017-01-18T06:24:59.859Z,83.02
2017-01-18T06:25:59.845Z,83.4
2017-01-18T06:26:59.827Z,83.21
2017-01-18T06:27:59.811Z,82.83
2017-01-18T06:28:59.796Z,82.26
2017-01-18T06:29:59.780Z,82.26
2017-01-18T06:30:59.767Z,83.11
2017-01-18T06:31:59.751Z,83.3
2017-01-18T06:32:59.733Z,83.21
2017-01-18T06:33:59.719Z,83.3
2017-01-18T06:34:59.704Z,83.78
2017-01-18T06:35:59.685Z,82.83
2017-01-18T06:36:59.671Z,83.68
2017-01-18T06:37:59.654Z,83.21
2017-01-18T06:38:59.640Z,83.11
2017-01-18T06:39:59.622Z,83.59
2017-01-18T06:40:59.609Z,83.78
2017-01-18T06:41:59.591Z,83.97
2017-01-18T06:42:59.578Z,83.87
2017-01-18T06:43:59.561Z,84.06
2017-01-18T06:44:59.543Z,84.06
2017-01-18T06:45:59.553Z,84.16
2017-01-18T06:46:59.511Z,83.78
2017-01-18T06:47:59.496Z,84.16
2017-01-18T06:48:59.481Z,83.4
2017-01-18T06:49:59.465Z,83.4
2017-01-18T06:50:59.836Z,83.68
2017-01-18T06:51:59.436Z,82.92
2017-01-18T06:52:59.418Z,83.68
2017-01-18T06:53:59.407Z,83.87
2017-01-18T06:54:59.386Z,83.21
2017-01-18T06:55:59.371Z,83.4
2017-01-18T06:56:59.354Z,83.3
2017-01-18T06:57:59.338Z,83.4
2017-01-18T06:58:59.323Z,83.59
2017-01-18T06:59:59.314Z,83.4
2017-01-18T07:00:59.677Z,83.49
2017-01-18T07:01:59.275Z,83.4
2017-01-18T07:02:59.260Z,83.78
2017-01-18T07:03:59.244Z,83.49
2017-01-18T07:04:59.258Z,83.97
2017-01-18T07:05:59.212Z,83.97
2017-01-18T07:06:59.205Z,83.78
2017-01-18T07:07:59.180Z,84.06
2017-01-18T07:08:59.165Z,83.97
2017-01-18T07:09:59.150Z,83.97
2017-01-18T07:10:59.133Z,84.16
2017-01-18T07:11:59.147Z,83.87
2017-01-18T07:12:59.101Z,83.68
2017-01-18T07:13:59.087Z,83.59
2017-01-18T07:14:59.071Z,83.68
2017-01-18T07:15:59.054Z,83.3
2017-01-18T07:16:59.427Z,83.11
2017-01-18T07:17:59.030Z,83.3
2017-01-18T07:18:59.008Z,83.3
2017-01-18T07:19:58.991Z,83.3
2017-01-18T07:20:58.976Z,83.49
2017-01-18T07:21:58.960Z,83.3
2017-01-18T07:22:58.946Z,83.02
2017-01-18T07:23:58.929Z,82.83
2017-01-18T07:24:58.913Z,82.54
2017-01-18T07:25:58.898Z,82.17
2017-01-18T07:26:58.882Z,81.79
2017-01-18T07:27:58.867Z,81.98
2017-01-18T07:28:58.855Z,81.88
2017-01-18T07:29:58.836Z,81.88
2017-01-18T07:30:58.820Z,82.45
2017-01-18T07:31:58.803Z,82.54
2017-01-18T07:32:58.787Z,83.02
2017-01-18T07:33:58.773Z,83.11
2017-01-18T07:34:58.760Z,83.02
2017-01-18T07:35:58.742Z,82.92
2017-01-18T07:36:58.728Z,83.11
2017-01-18T07:37:58.709Z,83.3
2017-01-18T07:38:58.696Z,82.83
2017-01-18T07:39:58.683Z,83.11
2017-01-18T07:40:58.665Z,82.07
2017-01-18T07:41:58.648Z,82.4
2017-01-18T07:42:58.634Z,82.31
2017-01-18T07:43:58.617Z,82.21
2017-01-18T07:44:58.601Z,81.93
2017-01-18T07:45:58.587Z,81.64
2017-01-18T07:46:58.571Z,81.64
2017-01-18T07:47:58.566Z,81.55
2017-01-18T07:48:58.542Z,81.26
2017-01-18T07:49:58.525Z,81.45
2017-01-18T07:50:58.511Z,81.74
2017-01-18T07:51:58.495Z,80.79
2017-01-18T07:52:58.478Z,80.88
2017-01-18T07:53:58.467Z,80.6
2017-01-18T07:54:58.450Z,80.41
2017-01-18T07:55:58.433Z,80.51
2017-01-18T07:56:58.417Z,80.13
2017-01-18T07:57:58.404Z,80.32
2017-01-18T07:58:58.388Z,80.79
2017-01-18T07:59:58.376Z,80.88
2017-01-18T08:00:58.358Z,80.13
2017-01-18T08:01:58.345Z,80.6
2017-01-18T08:02:58.331Z,80.69
2017-01-18T08:03:58.312Z,80.22
2017-01-18T08:04:58.296Z,80.69
2017-01-18T08:05:58.282Z,80.13
2017-01-18T08:06:58.268Z,80.51
2017-01-18T08:07:58.251Z,80.69
2017-01-18T08:08:58.236Z,80.6
2017-01-18T08:09:58.220Z,80.79
2017-01-18T08:10:58.205Z,80.32
2017-01-18T08:11:58.190Z,80.13
2017-01-18T08:12:58.175Z,80.18
2017-01-18T08:13:58.161Z,80.84
2017-01-18T08:14:58.145Z,79.99
2017-01-18T08:15:58.129Z,79.9
2017-01-18T08:16:58.116Z,80.18
2017-01-18T08:17:58.099Z,80.27
2017-01-18T08:18:58.086Z,80.46
2017-01-18T08:19:58.071Z,80.56
2017-01-18T08:20:58.054Z,81.03
2017-01-18T08:21:58.037Z,80.75
2017-01-18T08:22:58.025Z,80.65
2017-01-18T08:23:58.008Z,80.46
2017-01-18T08:24:57.994Z,80.84
2017-01-18T08:25:57.978Z,80.75
2017-01-18T08:26:57.962Z,80.94
2017-01-18T08:27:57.947Z,80.75
2017-01-18T08:28:57.937Z,80.79
2017-01-18T08:29:57.917Z,80.88
2017-01-18T08:30:57.903Z,80.51
2017-01-18T08:31:57.887Z,80.22
2017-01-18T08:32:57.872Z,80.32
2017-01-18T08:33:57.855Z,79.94
2017-01-18T08:34:57.841Z,80.13
2017-01-18T08:35:57.828Z,80.13
2017-01-18T08:36:57.814Z,80.13
2017-01-18T08:37:57.799Z,80.13
2017-01-18T08:38:57.781Z,80.6
2017-01-18T08:39:57.766Z,79.94
2017-01-18T08:40:57.753Z,80.6
2017-01-18T08:41:57.736Z,80.13
2017-01-18T08:42:57.723Z,79.85
2017-01-18T08:43:57.710Z,80.13
2017-01-18T08:44:57.691Z,80.41
2017-01-18T08:45:57.676Z,79.85
2017-01-18T08:46:57.665Z,80.13
2017-01-18T08:47:57.652Z,79.37
2017-01-18T08:48:57.634Z,79.56
2017-01-18T08:49:57.620Z,79.18
2017-01-18T08:50:57.606Z,78.99
2017-01-18T08:51:57.589Z,78.99
2017-01-18T08:52:57.575Z,79.18
2017-01-18T08:53:57.559Z,79.09
2017-01-18T08:54:57.547Z,78.61
2017-01-18T08:55:57.530Z,78.23
2017-01-18T08:56:57.520Z,78.71
2017-01-18T08:57:57.905Z,78.65
2017-01-18T08:58:57.488Z,77.42
2017-01-18T08:59:57.474Z,77.23
2017-01-18T09:00:57.460Z,77.8
2017-01-18T09:01:57.445Z,77.61
2017-01-18T09:02:57.429Z,77.86
2017-01-18T09:03:57.416Z,77.23
2017-01-18T09:04:57.401Z,77.23
2017-01-18T09:05:57.386Z,77.1
2017-01-18T09:06:57.372Z,77.58
2017-01-18T09:07:57.359Z,77.48
2017-01-18T09:08:57.347Z,77.2
2017-01-18T09:09:57.334Z,77.67
2017-01-18T09:10:57.316Z,77.86
2017-01-18T09:11:57.302Z,77.86
2017-01-18T09:12:57.288Z,77.61
2017-01-18T09:13:57.272Z,77.61
2017-01-18T09:14:57.258Z,77.61
2017-01-18T09:15:57.243Z,77.61
2017-01-18T09:16:57.228Z,77.23
2017-01-18T09:17:57.239Z,76.86
2017-01-18T09:18:57.201Z,76.57
2017-01-18T09:19:57.186Z,76.57
2017-01-18T09:20:57.172Z,76.76
2017-01-18T09:21:57.159Z,77.14
2017-01-18T09:22:57.146Z,76.95
2017-01-18T09:23:57.130Z,76.57
2017-01-18T09:24:57.116Z,76.76
2017-01-18T09:25:57.101Z,76.67
2017-01-18T09:26:57.088Z,76
2017-01-18T09:27:57.072Z,76
2017-01-18T09:28:57.061Z,75.72
2017-01-18T09:29:57.048Z,75.53
2017-01-18T09:30:57.034Z,75.62
2017-01-18T09:31:57.019Z,75.66
2017-01-18T09:32:57.006Z,75.47
2017-01-18T09:33:56.992Z,74.33
2017-01-18T09:34:56.976Z,75.09
2017-01-18T09:35:56.962Z,75
2017-01-18T09:36:56.950Z,75.28
2017-01-18T09:37:56.935Z,75.28
2017-01-18T09:38:56.921Z,74.43
2017-01-18T09:39:56.908Z,74.05
2017-01-18T09:40:56.896Z,74.15
2017-01-18T09:41:56.882Z,73.58
2017-01-18T09:42:56.867Z,74.05
2017-01-18T09:43:56.852Z,74.05
2017-01-18T09:44:56.840Z,73.96
2017-01-18T09:45:56.826Z,73.96
2017-01-18T09:46:56.812Z,73.96
2017-01-18T09:47:56.803Z,73.68
2017-01-18T09:48:56.786Z,73.52
2017-01-18T09:49:56.771Z,73.14
2017-01-18T09:50:56.759Z,72.67
2017-01-18T09:51:56.748Z,72.77
2017-01-18T09:52:56.732Z,72.1
2017-01-18T09:53:56.723Z,72.38
2017-01-18T09:54:56.707Z,72.29
2017-01-18T09:55:57.081Z,72
2017-01-18T09:56:56.681Z,72.1
2017-01-18T09:57:56.667Z,71.62
2017-01-18T09:58:56.657Z,71.91
2017-01-18T09:59:56.643Z,71.53
2017-01-18T10:00:56.627Z,71.25
2017-01-18T10:01:56.616Z,70.01
2017-01-18T10:02:56.603Z,70.2
2017-01-18T10:03:56.592Z,70.2
2017-01-18T10:04:56.576Z,69.64
2017-01-18T10:05:56.565Z,69.64
2017-01-18T10:06:56.552Z,70.36
2017-01-18T10:07:56.538Z,71.02
2017-01-18T10:08:56.528Z,70.93
2017-01-18T10:09:56.513Z,70.93
2017-01-18T10:10:56.501Z,71.91
2017-01-18T10:11:56.489Z,71.21
2017-01-18T10:12:56.475Z,71.06
2017-01-18T10:13:56.463Z,71.44
2017-01-18T10:14:56.453Z,71.25
2017-01-18T10:15:56.437Z,71.06
2017-01-18T10:16:56.427Z,70.97
2017-01-18T10:17:56.413Z,71.25
2017-01-18T10:18:56.401Z,71.72
2017-01-18T10:19:56.388Z,70.87
2017-01-18T10:20:56.375Z,70.68
2017-01-18T10:21:56.362Z,70.3
2017-01-18T10:22:56.349Z,70.78
2017-01-18T10:23:56.337Z,70.68
2017-01-18T10:24:56.324Z,70.68
2017-01-18T10:25:56.310Z,70.3
2017-01-18T10:26:56.298Z,69.92
2017-01-18T10:27:56.287Z,70.01
2017-01-18T10:28:56.281Z,70.24
2017-01-18T10:29:56.260Z,69.86
2017-01-18T10:30:56.250Z,69.67
2017-01-18T10:31:56.235Z,69.01
2017-01-18T10:32:56.224Z,69.01
2017-01-18T10:33:56.213Z,69.48
2017-01-18T10:34:56.204Z,68.91
2017-01-18T10:35:56.187Z,67.87
2017-01-18T10:36:56.175Z,67.49
2017-01-18T10:37:56.166Z,67.96
2017-01-18T10:38:56.152Z,67.68
2017-01-18T10:39:56.141Z,67.87
2017-01-18T10:40:56.512Z,66.93
2017-01-18T10:41:56.113Z,67.77
2017-01-18T10:42:56.102Z,67.02
2017-01-18T10:43:56.119Z,67.77
2017-01-18T10:44:56.078Z,67.4
2017-01-18T10:45:56.067Z,67.4
2017-01-18T10:46:56.055Z,68.06
2017-01-18T10:47:56.044Z,67.58
2017-01-18T10:48:56.032Z,67.3
2017-01-18T10:49:56.020Z,67.3
2017-01-18T10:50:56.010Z,67.3
2017-01-18T10:51:55.994Z,67.81
2017-01-18T10:52:55.988Z,67.71
2017-01-18T10:53:55.970Z,67.62
2017-01-18T10:54:55.962Z,66.77
2017-01-18T10:55:55.947Z,66.1
2017-01-18T10:56:55.954Z,65.25
2017-01-18T10:57:55.926Z,65.63
2017-01-18T10:58:55.910Z,65.5
2017-01-18T10:59:55.899Z,65.22
2017-01-18T11:00:55.890Z,66.26
2017-01-18T11:01:55.875Z,66.54
2017-01-18T11:02:55.867Z,66.74
2017-01-18T11:03:55.853Z,66.64
2017-01-18T11:04:55.841Z,66.83
2017-01-18T11:05:55.830Z,66.74
2017-01-18T11:06:55.819Z,66.54
2017-01-18T11:07:55.804Z,66.45
2017-01-18T11:08:55.797Z,66.74
2017-01-18T11:09:55.782Z,67.21
2017-01-18T11:10:55.770Z,67.11
2017-01-18T11:11:55.789Z,66.74
2017-01-18T11:12:55.747Z,67.24
2017-01-18T11:13:55.740Z,66.86
2017-01-18T11:14:55.723Z,66.2
2017-01-18T11:15:55.711Z,65.53
2017-01-18T11:16:55.701Z,65.82
2017-01-18T11:17:55.688Z,66.39
2017-01-18T11:18:55.677Z,65.91
2017-01-18T11:19:55.663Z,66.45
2017-01-18T11:20:55.654Z,66.29
2017-01-18T11:21:55.641Z,66.93
2017-01-18T11:22:55.630Z,66.77
2017-01-18T11:23:55.618Z,66.29
2017-01-18T11:24:55.607Z,66.01
2017-01-18T11:25:55.594Z,66.48
2017-01-18T11:26:55.583Z,65.16
2017-01-18T11:27:55.571Z,65.41
2017-01-18T11:28:55.559Z,66.16
2017-01-18T11:29:55.547Z,66.1
2017-01-18T11:30:55.537Z,66.39
2017-01-18T11:31:55.524Z,66.1
2017-01-18T11:32:55.513Z,66.39
2017-01-18T11:33:55.501Z,65.34
2017-01-18T11:34:55.488Z,65.25
2017-01-18T11:35:55.476Z,65.59
2017-01-18T11:36:55.465Z,65.53
2017-01-18T11:37:55.452Z,65.82
2017-01-18T11:38:55.441Z,65.5
2017-01-18T11:39:55.430Z,66.35
2017-01-18T11:40:55.418Z,66.2
2017-01-18T11:41:55.408Z,65.69
2017-01-18T11:42:55.395Z,65.44
2017-01-18T11:43:55.385Z,65.63
2017-01-18T11:44:55.372Z,65.91
2017-01-18T11:45:55.360Z,65.72
2017-01-18T11:46:55.347Z,65.34
2017-01-18T11:47:55.333Z,64.97
2017-01-18T11:48:55.321Z,64.78
2017-01-18T11:49:55.311Z,64.3
2017-01-18T11:50:55.299Z,64.65
2017-01-18T11:51:55.288Z,64.93
2017-01-18T11:52:55.278Z,64.93
2017-01-18T11:53:55.263Z,65.12
2017-01-18T11:54:55.253Z,64.36
2017-01-18T11:55:55.241Z,65.31
2017-01-18T11:56:55.228Z,65.31
2017-01-18T11:57:55.215Z,66.26
2017-01-18T11:58:55.234Z,66.83
2017-01-18T11:59:55.191Z,66.74
2017-01-18T12:00:55.181Z,66.74
2017-01-18T12:01:55.168Z,66.83
2017-01-18T12:02:55.158Z,66.93
2017-01-18T12:03:55.145Z,66.64
2017-01-18T12:04:55.132Z,66.35
2017-01-18T12:05:55.121Z,66.35
2017-01-18T12:06:55.498Z,66.74
2017-01-18T12:07:55.096Z,66.83
2017-01-18T12:08:55.082Z,67.11
2017-01-18T12:09:55.070Z,67.21
2017-01-18T12:10:55.059Z,66.35
2017-01-18T12:11:55.430Z,66.54
2017-01-18T12:12:55.030Z,66.41
2017-01-18T12:13:55.020Z,66.8
2017-01-18T12:14:55.008Z,66.8
2017-01-18T12:15:54.993Z,67.46
2017-01-18T12:16:54.983Z,67.55
2017-01-18T12:17:54.969Z,67.18
2017-01-18T12:18:54.958Z,67.93
2017-01-18T12:19:54.943Z,67.65
2017-01-18T12:20:54.932Z,67.27
2017-01-18T12:21:54.927Z,67.74
2017-01-18T12:22:54.907Z,66.8
2017-01-18T12:23:54.895Z,67.65
2017-01-18T12:24:54.882Z,67.74
2017-01-18T12:25:54.872Z,67.74
2017-01-18T12:26:54.854Z,67.55
2017-01-18T12:27:54.846Z,67.74
2017-01-18T12:28:54.832Z,67.74
2017-01-18T12:29:54.818Z,67.36
2017-01-18T12:30:54.806Z,67.74
2017-01-18T12:31:54.793Z,67.65
2017-01-18T12:32:54.788Z,67.46
2017-01-18T12:33:54.768Z,67.83
2017-01-18T12:34:54.753Z,67.65
2017-01-18T12:35:54.742Z,67.58
2017-01-18T12:36:54.729Z,67.4
2017-01-18T12:37:54.717Z,67.58
2017-01-18T12:38:54.704Z,67.77
2017-01-18T12:39:54.693Z,67.49
2017-01-18T12:40:54.680Z,67.3
2017-01-18T12:41:54.668Z,67.68
2017-01-18T12:42:54.655Z,67.58
2017-01-18T12:43:54.643Z,67.3
2017-01-18T12:44:54.632Z,67.36
2017-01-18T12:45:54.616Z,66.8
2017-01-18T12:46:54.604Z,66.8
2017-01-18T12:47:54.594Z,67.65
2017-01-18T12:48:54.580Z,67.36
2017-01-18T12:49:54.567Z,67.65
2017-01-18T12:50:54.555Z,67.46
2017-01-18T12:51:54.543Z,67.74
2017-01-18T12:52:54.530Z,67.74
2017-01-18T12:53:54.516Z,67.55
2017-01-18T12:54:54.504Z,68.02
2017-01-18T12:55:54.493Z,68.4